Terminal Aerodrome Forecast
Issued by NWS Sterling, VA

Home | Current Version | Previous Version | Text Only | Print | Product List | Glossary On
Versions: 1 2 3 4 5 6 7 8 9 10 11 12 13 14 15 16 17 18 19 20 21 22 23 24 25 26 27 28 29 30 31
995
FTUS41 KLWX 041131
TAFIAD
TAF
KIAD 041131Z 0412/0518 09004KT 3SM -DZ BR OVC004
     FM041800 05004KT P6SM BKN010
     FM051400 01007KT P6SM OVC010=

USA.gov is the U.S. government's official web portal to all federal, state and local government web resources and services.